sensor_id;sensor_type;location;lat;lon;timestamp;P1;durP1;ratioP1;P2;durP2;ratioP2
26335;SDS011;14047;50.936;4.654;2022-08-01T00:01:45;6.45;;;2.35;;
26335;SDS011;14047;50.936;4.654;2022-08-01T00:04:11;3.03;;;1.40;;
26335;SDS011;14047;50.936;4.654;2022-08-01T00:06:36;3.45;;;1.30;;
26335;SDS011;14047;50.936;4.654;2022-08-01T00:09:02;4.85;;;1.63;;
26335;SDS011;14047;50.936;4.654;2022-08-01T00:11:27;4.65;;;1.80;;
26335;SDS011;14047;50.936;4.654;2022-08-01T00:13:53;6.13;;;2.10;;
26335;SDS011;14047;50.936;4.654;2022-08-01T00:16:18;3.55;;;1.48;;
26335;SDS011;14047;50.936;4.654;2022-08-01T00:18:47;2.70;;;1.48;;
26335;SDS011;14047;50.936;4.654;2022-08-01T00:21:14;4.72;;;1.80;;
26335;SDS011;14047;50.936;4.654;2022-08-01T00:23:40;3.47;;;2.10;;
26335;SDS011;14047;50.936;4.654;2022-08-01T00:26:06;6.57;;;2.78;;
26335;SDS011;14047;50.936;4.654;2022-08-01T00:28:31;5.97;;;2.17;;
26335;SDS011;14047;50.936;4.654;2022-08-01T00:30:57;7.15;;;2.58;;
26335;SDS011;14047;50.936;4.654;2022-08-01T00:33:22;5.32;;;2.67;;
26335;SDS011;14047;50.936;4.654;2022-08-01T00:35:48;4.93;;;2.17;;
26335;SDS011;14047;50.936;4.654;2022-08-01T00:38:14;6.80;;;3.03;;
26335;SDS011;14047;50.936;4.654;2022-08-01T00:40:39;8.90;;;3.90;;
26335;SDS011;14047;50.936;4.654;2022-08-01T00:43:05;7.15;;;3.22;;
26335;SDS011;14047;50.936;4.654;2022-08-01T00:45:31;9.02;;;3.38;;
26335;SDS011;14047;50.936;4.654;2022-08-01T00:47:56;8.27;;;3.22;;
26335;SDS011;14047;50.936;4.654;2022-08-01T00:50:22;8.10;;;3.47;;
26335;SDS011;14047;50.936;4.654;2022-08-01T00:52:48;6.28;;;2.90;;
26335;SDS011;14047;50.936;4.654;2022-08-01T00:55:14;7.93;;;3.53;;
26335;SDS011;14047;50.936;4.654;2022-08-01T00:57:41;9.13;;;4.10;;
26335;SDS011;14047;50.936;4.654;2022-08-01T01:00:07;8.40;;;3.83;;
26335;SDS011;14047;50.936;4.654;2022-08-01T01:02:33;10.05;;;4.22;;
26335;SDS011;14047;50.936;4.654;2022-08-01T01:05:00;10.15;;;4.53;;
26335;SDS011;14047;50.936;4.654;2022-08-01T01:07:32;5.90;;;3.15;;
26335;SDS011;14047;50.936;4.654;2022-08-01T01:10:36;9.68;;;3.80;;
26335;SDS011;14047;50.936;4.654;2022-08-01T01:13:27;13.63;;;4.25;;
26335;SDS011;14047;50.936;4.654;2022-08-01T01:16:08;7.60;;;3.53;;
26335;SDS011;14047;50.936;4.654;2022-08-01T01:18:38;8.10;;;3.90;;
26335;SDS011;14047;50.936;4.654;2022-08-01T01:27:17;7.57;;;3.60;;
26335;SDS011;14047;50.936;4.654;2022-08-01T01:31:57;6.78;;;3.60;;
26335;SDS011;14047;50.936;4.654;2022-08-01T01:34:29;8.73;;;3.78;;
26335;SDS011;14047;50.936;4.654;2022-08-01T01:36:58;5.95;;;4.05;;
26335;SDS011;14047;50.936;4.654;2022-08-01T01:39:26;10.13;;;3.88;;
26335;SDS011;14047;50.936;4.654;2022-08-01T01:41:55;6.80;;;3.88;;
26335;SDS011;14047;50.936;4.654;2022-08-01T01:44:22;10.43;;;4.30;;
26335;SDS011;14047;50.936;4.654;2022-08-01T01:46:50;6.72;;;4.00;;
26335;SDS011;14047;50.936;4.654;2022-08-01T01:49:19;13.57;;;4.30;;
26335;SDS011;14047;50.936;4.654;2022-08-01T01:51:47;9.45;;;4.00;;
26335;SDS011;14047;50.936;4.654;2022-08-01T01:54:15;11.68;;;4.55;;
26335;SDS011;14047;50.936;4.654;2022-08-01T01:56:40;9.07;;;4.13;;
26335;SDS011;14047;50.936;4.654;2022-08-01T01:59:13;13.27;;;4.93;;
26335;SDS011;14047;50.936;4.654;2022-08-01T02:01:44;9.60;;;4.93;;
26335;SDS011;14047;50.936;4.654;2022-08-01T02:04:14;9.93;;;4.65;;
26335;SDS011;14047;50.936;4.654;2022-08-01T02:06:42;9.32;;;5.22;;
26335;SDS011;14047;50.936;4.654;2022-08-01T02:09:11;7.20;;;4.60;;
26335;SDS011;14047;50.936;4.654;2022-08-01T02:11:40;7.78;;;5.10;;
26335;SDS011;14047;50.936;4.654;2022-08-01T02:14:07;10.05;;;5.40;;
26335;SDS011;14047;50.936;4.654;2022-08-01T02:16:35;9.90;;;5.60;;
26335;SDS011;14047;50.936;4.654;2022-08-01T02:19:04;13.13;;;5.80;;
26335;SDS011;14047;50.936;4.654;2022-08-01T02:21:35;8.57;;;5.78;;
26335;SDS011;14047;50.936;4.654;2022-08-01T02:24:12;11.48;;;4.88;;
26335;SDS011;14047;50.936;4.654;2022-08-01T02:26:44;12.73;;;5.85;;
26335;SDS011;14047;50.936;4.654;2022-08-01T02:29:15;10.30;;;6.30;;
26335;SDS011;14047;50.936;4.654;2022-08-01T02:31:46;13.63;;;7.85;;
26335;SDS011;14047;50.936;4.654;2022-08-01T02:34:15;10.07;;;6.80;;
26335;SDS011;14047;50.936;4.654;2022-08-01T02:36:43;10.88;;;7.00;;
26335;SDS011;14047;50.936;4.654;2022-08-01T02:39:11;16.52;;;7.75;;
26335;SDS011;14047;50.936;4.654;2022-08-01T02:41:41;13.73;;;8.15;;
26335;SDS011;14047;50.936;4.654;2022-08-01T02:44:10;15.18;;;9.07;;
26335;SDS011;14047;50.936;4.654;2022-08-01T02:46:51;13.57;;;8.10;;
26335;SDS011;14047;50.936;4.654;2022-08-01T02:49:20;18.95;;;9.65;;
26335;SDS011;14047;50.936;4.654;2022-08-01T02:51:48;16.98;;;9.02;;
26335;SDS011;14047;50.936;4.654;2022-08-01T02:54:16;12.85;;;8.13;;
26335;SDS011;14047;50.936;4.654;2022-08-01T02:56:43;17.67;;;8.23;;
26335;SDS011;14047;50.936;4.654;2022-08-01T02:59:12;16.90;;;9.32;;
26335;SDS011;14047;50.936;4.654;2022-08-01T03:01:41;19.50;;;10.50;;
26335;SDS011;14047;50.936;4.654;2022-08-01T03:04:10;21.13;;;10.68;;
26335;SDS011;14047;50.936;4.654;2022-08-01T03:06:37;22.23;;;10.05;;
26335;SDS011;14047;50.936;4.654;2022-08-01T03:09:04;21.75;;;9.93;;
26335;SDS011;14047;50.936;4.654;2022-08-01T03:11:31;23.70;;;10.90;;
26335;SDS011;14047;50.936;4.654;2022-08-01T03:13:59;18.65;;;9.55;;
26335;SDS011;14047;50.936;4.654;2022-08-01T03:16:26;25.92;;;11.65;;
26335;SDS011;14047;50.936;4.654;2022-08-01T03:18:53;32.17;;;12.75;;
26335;SDS011;14047;50.936;4.654;2022-08-01T03:21:21;26.75;;;12.57;;
26335;SDS011;14047;50.936;4.654;2022-08-01T03:23:49;20.27;;;11.02;;
26335;SDS011;14047;50.936;4.654;2022-08-01T03:26:16;27.67;;;12.85;;
26335;SDS011;14047;50.936;4.654;2022-08-01T03:28:44;25.67;;;12.85;;
26335;SDS011;14047;50.936;4.654;2022-08-01T03:31:13;31.35;;;12.95;;
26335;SDS011;14047;50.936;4.654;2022-08-01T03:33:39;29.50;;;13.02;;
26335;SDS011;14047;50.936;4.654;2022-08-01T03:36:05;32.38;;;14.00;;
26335;SDS011;14047;50.936;4.654;2022-08-01T03:38:35;23.58;;;12.43;;
26335;SDS011;14047;50.936;4.654;2022-08-01T03:41:14;27.52;;;12.80;;
26335;SDS011;14047;50.936;4.654;2022-08-01T03:43:46;31.05;;;13.63;;
26335;SDS011;14047;50.936;4.654;2022-08-01T03:47:04;26.73;;;12.85;;
26335;SDS011;14047;50.936;4.654;2022-08-01T03:49:06;25.13;;;12.73;;
26335;SDS011;14047;50.936;4.654;2022-08-01T03:51:36;30.25;;;13.23;;
26335;SDS011;14047;50.936;4.654;2022-08-01T03:54:03;29.45;;;13.75;;
26335;SDS011;14047;50.936;4.654;2022-08-01T03:56:30;25.92;;;14.15;;
26335;SDS011;14047;50.936;4.654;2022-08-01T03:58:58;33.67;;;14.40;;
26335;SDS011;14047;50.936;4.654;2022-08-01T04:01:24;35.10;;;15.57;;
26335;SDS011;14047;50.936;4.654;2022-08-01T04:03:51;34.28;;;16.70;;
26335;SDS011;14047;50.936;4.654;2022-08-01T04:06:18;36.47;;;16.48;;
26335;SDS011;14047;50.936;4.654;2022-08-01T04:08:44;39.75;;;16.77;;
26335;SDS011;14047;50.936;4.654;2022-08-01T04:11:20;37.95;;;17.25;;
26335;SDS011;14047;50.936;4.654;2022-08-01T04:13:47;37.72;;;17.05;;
26335;SDS011;14047;50.936;4.654;2022-08-01T04:16:13;40.38;;;16.25;;
26335;SDS011;14047;50.936;4.654;2022-08-01T04:18:39;31.67;;;16.63;;
26335;SDS011;14047;50.936;4.654;2022-08-01T04:21:04;30.17;;;16.30;;
26335;SDS011;14047;50.936;4.654;2022-08-01T04:23:30;35.00;;;16.33;;
26335;SDS011;14047;50.936;4.654;2022-08-01T04:25:59;28.73;;;15.80;;
26335;SDS011;14047;50.936;4.654;2022-08-01T04:28:29;30.33;;;16.10;;
26335;SDS011;14047;50.936;4.654;2022-08-01T04:30:57;37.22;;;15.77;;
26335;SDS011;14047;50.936;4.654;2022-08-01T04:33:24;31.17;;;16.25;;
26335;SDS011;14047;50.936;4.654;2022-08-01T04:35:53;28.38;;;15.38;;
26335;SDS011;14047;50.936;4.654;2022-08-01T04:38:21;36.35;;;16.98;;
26335;SDS011;14047;50.936;4.654;2022-08-01T04:40:53;33.75;;;17.40;;
26335;SDS011;14047;50.936;4.654;2022-08-01T04:43:19;41.55;;;16.20;;
26335;SDS011;14047;50.936;4.654;2022-08-01T04:45:46;32.60;;;16.65;;
26335;SDS011;14047;50.936;4.654;2022-08-01T04:48:13;32.13;;;16.38;;
26335;SDS011;14047;50.936;4.654;2022-08-01T04:50:42;34.80;;;17.00;;
26335;SDS011;14047;50.936;4.654;2022-08-01T04:53:18;32.90;;;15.88;;
26335;SDS011;14047;50.936;4.654;2022-08-01T04:55:47;35.00;;;17.40;;
26335;SDS011;14047;50.936;4.654;2022-08-01T04:58:13;42.00;;;17.73;;
26335;SDS011;14047;50.936;4.654;2022-08-01T05:00:40;30.90;;;15.77;;
26335;SDS011;14047;50.936;4.654;2022-08-01T05:03:06;33.30;;;16.55;;
26335;SDS011;14047;50.936;4.654;2022-08-01T05:05:31;26.77;;;15.63;;
26335;SDS011;14047;50.936;4.654;2022-08-01T05:07:57;33.90;;;15.68;;
26335;SDS011;14047;50.936;4.654;2022-08-01T05:10:25;30.85;;;16.02;;
26335;SDS011;14047;50.936;4.654;2022-08-01T05:12:51;31.00;;;15.50;;
26335;SDS011;14047;50.936;4.654;2022-08-01T05:15:17;28.17;;;15.98;;
26335;SDS011;14047;50.936;4.654;2022-08-01T05:17:42;29.77;;;14.88;;
26335;SDS011;14047;50.936;4.654;2022-08-01T05:20:08;30.00;;;14.30;;
26335;SDS011;14047;50.936;4.654;2022-08-01T05:22:34;24.13;;;14.50;;
26335;SDS011;14047;50.936;4.654;2022-08-01T05:25:00;23.23;;;12.90;;
26335;SDS011;14047;50.936;4.654;2022-08-01T05:27:26;26.48;;;13.15;;
26335;SDS011;14047;50.936;4.654;2022-08-01T05:29:51;25.25;;;13.43;;
26335;SDS011;14047;50.936;4.654;2022-08-01T05:32:17;19.92;;;11.98;;
26335;SDS011;14047;50.936;4.654;2022-08-01T05:34:43;20.33;;;11.93;;
26335;SDS011;14047;50.936;4.654;2022-08-01T05:37:09;22.10;;;12.55;;
26335;SDS011;14047;50.936;4.654;2022-08-01T05:39:35;26.63;;;12.10;;
26335;SDS011;14047;50.936;4.654;2022-08-01T05:42:01;20.83;;;11.95;;
26335;SDS011;14047;50.936;4.654;2022-08-01T05:44:27;21.88;;;12.32;;
26335;SDS011;14047;50.936;4.654;2022-08-01T05:46:52;23.27;;;11.18;;
26335;SDS011;14047;50.936;4.654;2022-08-01T05:49:18;22.20;;;11.45;;
26335;SDS011;14047;50.936;4.654;2022-08-01T05:51:44;18.02;;;10.20;;
26335;SDS011;14047;50.936;4.654;2022-08-01T05:54:10;17.30;;;10.25;;
26335;SDS011;14047;50.936;4.654;2022-08-01T05:56:36;18.58;;;10.02;;
26335;SDS011;14047;50.936;4.654;2022-08-01T05:59:01;19.55;;;9.23;;
26335;SDS011;14047;50.936;4.654;2022-08-01T06:01:27;17.73;;;9.13;;
26335;SDS011;14047;50.936;4.654;2022-08-01T06:03:53;16.10;;;8.95;;
26335;SDS011;14047;50.936;4.654;2022-08-01T06:06:19;13.52;;;7.63;;
26335;SDS011;14047;50.936;4.654;2022-08-01T06:08:46;19.20;;;8.48;;
26335;SDS011;14047;50.936;4.654;2022-08-01T06:11:12;16.73;;;8.50;;
26335;SDS011;14047;50.936;4.654;2022-08-01T06:13:37;14.77;;;8.13;;
26335;SDS011;14047;50.936;4.654;2022-08-01T06:16:03;13.88;;;7.00;;
26335;SDS011;14047;50.936;4.654;2022-08-01T06:18:29;11.90;;;6.78;;
26335;SDS011;14047;50.936;4.654;2022-08-01T06:20:54;13.43;;;6.88;;
26335;SDS011;14047;50.936;4.654;2022-08-01T06:23:21;11.80;;;6.57;;
26335;SDS011;14047;50.936;4.654;2022-08-01T06:25:46;13.13;;;6.20;;
26335;SDS011;14047;50.936;4.654;2022-08-01T06:28:12;10.20;;;5.82;;
26335;SDS011;14047;50.936;4.654;2022-08-01T06:30:38;12.93;;;6.45;;
26335;SDS011;14047;50.936;4.654;2022-08-01T06:33:04;10.05;;;5.63;;
26335;SDS011;14047;50.936;4.654;2022-08-01T06:35:29;13.80;;;5.95;;
26335;SDS011;14047;50.936;4.654;2022-08-01T06:37:56;9.73;;;5.40;;
26335;SDS011;14047;50.936;4.654;2022-08-01T06:40:22;15.85;;;5.97;;
26335;SDS011;14047;50.936;4.654;2022-08-01T06:42:48;9.32;;;5.40;;
26335;SDS011;14047;50.936;4.654;2022-08-01T06:45:14;10.65;;;5.75;;
26335;SDS011;14047;50.936;4.654;2022-08-01T06:47:41;8.30;;;5.50;;
26335;SDS011;14047;50.936;4.654;2022-08-01T06:50:08;13.95;;;5.78;;
26335;SDS011;14047;50.936;4.654;2022-08-01T06:52:35;10.20;;;5.93;;
26335;SDS011;14047;50.936;4.654;2022-08-01T06:55:01;11.43;;;5.72;;
26335;SDS011;14047;50.936;4.654;2022-08-01T06:57:27;11.60;;;6.07;;
26335;SDS011;14047;50.936;4.654;2022-08-01T06:59:53;9.88;;;5.93;;
26335;SDS011;14047;50.936;4.654;2022-08-01T07:02:19;7.70;;;6.15;;
26335;SDS011;14047;50.936;4.654;2022-08-01T07:04:45;11.18;;;5.63;;
26335;SDS011;14047;50.936;4.654;2022-08-01T07:07:11;9.50;;;6.20;;
26335;SDS011;14047;50.936;4.654;2022-08-01T07:09:36;10.63;;;5.75;;
26335;SDS011;14047;50.936;4.654;2022-08-01T07:12:03;7.65;;;5.75;;
26335;SDS011;14047;50.936;4.654;2022-08-01T07:14:29;9.07;;;6.00;;
26335;SDS011;14047;50.936;4.654;2022-08-01T07:16:54;9.63;;;6.05;;
26335;SDS011;14047;50.936;4.654;2022-08-01T07:19:20;7.57;;;5.13;;
26335;SDS011;14047;50.936;4.654;2022-08-01T07:21:46;13.05;;;5.72;;
26335;SDS011;14047;50.936;4.654;2022-08-01T07:24:12;9.70;;;4.68;;
26335;SDS011;14047;50.936;4.654;2022-08-01T07:26:42;10.73;;;3.85;;
26335;SDS011;14047;50.936;4.654;2022-08-01T07:29:09;6.63;;;3.85;;
26335;SDS011;14047;50.936;4.654;2022-08-01T07:31:35;6.50;;;3.75;;
26335;SDS011;14047;50.936;4.654;2022-08-01T07:34:01;5.53;;;3.58;;
26335;SDS011;14047;50.936;4.654;2022-08-01T07:36:26;7.88;;;4.38;;
26335;SDS011;14047;50.936;4.654;2022-08-01T07:38:52;8.52;;;4.78;;
26335;SDS011;14047;50.936;4.654;2022-08-01T07:41:18;6.30;;;3.75;;
26335;SDS011;14047;50.936;4.654;2022-08-01T07:43:43;9.10;;;4.20;;
26335;SDS011;14047;50.936;4.654;2022-08-01T07:46:09;10.77;;;3.97;;
26335;SDS011;14047;50.936;4.654;2022-08-01T07:48:34;5.85;;;3.08;;
26335;SDS011;14047;50.936;4.654;2022-08-01T07:51:00;5.50;;;3.42;;
26335;SDS011;14047;50.936;4.654;2022-08-01T07:53:26;5.63;;;3.38;;
26335;SDS011;14047;50.936;4.654;2022-08-01T07:55:51;6.32;;;3.58;;
26335;SDS011;14047;50.936;4.654;2022-08-01T07:58:17;10.02;;;2.97;;
26335;SDS011;14047;50.936;4.654;2022-08-01T08:00:43;6.60;;;2.60;;
26335;SDS011;14047;50.936;4.654;2022-08-01T08:03:09;6.30;;;2.53;;
26335;SDS011;14047;50.936;4.654;2022-08-01T08:05:34;5.68;;;2.55;;
26335;SDS011;14047;50.936;4.654;2022-08-01T08:08:09;3.35;;;2.45;;
26335;SDS011;14047;50.936;4.654;2022-08-01T08:10:36;3.03;;;1.90;;
26335;SDS011;14047;50.936;4.654;2022-08-01T08:13:02;4.53;;;2.65;;
26335;SDS011;14047;50.936;4.654;2022-08-01T08:15:28;4.93;;;2.22;;
26335;SDS011;14047;50.936;4.654;2022-08-01T08:17:54;4.53;;;2.33;;
26335;SDS011;14047;50.936;4.654;2022-08-01T08:20:19;4.50;;;2.20;;
26335;SDS011;14047;50.936;4.654;2022-08-01T08:22:50;3.53;;;2.40;;
26335;SDS011;14047;50.936;4.654;2022-08-01T08:25:16;5.78;;;2.20;;
26335;SDS011;14047;50.936;4.654;2022-08-01T08:27:44;3.00;;;2.20;;
26335;SDS011;14047;50.936;4.654;2022-08-01T08:30:09;3.67;;;2.33;;
26335;SDS011;14047;50.936;4.654;2022-08-01T08:32:36;4.43;;;2.03;;
26335;SDS011;14047;50.936;4.654;2022-08-01T08:35:02;5.95;;;2.20;;
26335;SDS011;14047;50.936;4.654;2022-08-01T08:37:29;6.22;;;2.00;;
26335;SDS011;14047;50.936;4.654;2022-08-01T08:39:55;7.45;;;2.20;;
26335;SDS011;14047;50.936;4.654;2022-08-01T08:42:21;4.45;;;2.25;;
26335;SDS011;14047;50.936;4.654;2022-08-01T08:44:47;4.57;;;2.60;;
26335;SDS011;14047;50.936;4.654;2022-08-01T08:47:13;4.25;;;2.88;;
26335;SDS011;14047;50.936;4.654;2022-08-01T08:49:40;4.80;;;2.83;;
26335;SDS011;14047;50.936;4.654;2022-08-01T08:52:09;4.20;;;3.00;;
26335;SDS011;14047;50.936;4.654;2022-08-01T08:54:37;5.53;;;2.80;;
26335;SDS011;14047;50.936;4.654;2022-08-01T08:57:03;3.83;;;2.78;;
26335;SDS011;14047;50.936;4.654;2022-08-01T08:59:30;3.40;;;2.15;;
26335;SDS011;14047;50.936;4.654;2022-08-01T09:01:57;6.55;;;2.13;;
26335;SDS011;14047;50.936;4.654;2022-08-01T09:04:23;3.70;;;2.65;;
26335;SDS011;14047;50.936;4.654;2022-08-01T09:06:51;2.50;;;2.30;;
26335;SDS011;14047;50.936;4.654;2022-08-01T09:09:17;7.72;;;2.47;;
26335;SDS011;14047;50.936;4.654;2022-08-01T09:11:43;4.35;;;2.15;;
26335;SDS011;14047;50.936;4.654;2022-08-01T09:14:09;4.50;;;2.15;;
26335;SDS011;14047;50.936;4.654;2022-08-01T09:16:41;2.53;;;2.15;;
26335;SDS011;14047;50.936;4.654;2022-08-01T09:19:09;3.75;;;2.20;;
26335;SDS011;14047;50.936;4.654;2022-08-01T09:22:16;4.88;;;1.95;;
26335;SDS011;14047;50.936;4.654;2022-08-01T09:24:39;3.38;;;2.08;;
26335;SDS011;14047;50.936;4.654;2022-08-01T09:27:16;4.32;;;2.30;;
26335;SDS011;14047;50.936;4.654;2022-08-01T09:29:45;3.75;;;1.88;;
26335;SDS011;14047;50.936;4.654;2022-08-01T09:32:11;2.35;;;2.15;;
26335;SDS011;14047;50.936;4.654;2022-08-01T09:34:37;3.45;;;2.53;;
26335;SDS011;14047;50.936;4.654;2022-08-01T09:37:02;2.85;;;2.05;;
26335;SDS011;14047;50.936;4.654;2022-08-01T09:39:29;3.42;;;2.25;;
26335;SDS011;14047;50.936;4.654;2022-08-01T09:41:57;4.10;;;2.22;;
26335;SDS011;14047;50.936;4.654;2022-08-01T09:44:41;6.75;;;2.30;;
26335;SDS011;14047;50.936;4.654;2022-08-01T09:47:08;2.92;;;2.28;;
26335;SDS011;14047;50.936;4.654;2022-08-01T09:49:35;6.38;;;2.00;;
26335;SDS011;14047;50.936;4.654;2022-08-01T09:54:54;4.03;;;2.35;;
26335;SDS011;14047;50.936;4.654;2022-08-01T09:57:25;2.58;;;1.90;;
26335;SDS011;14047;50.936;4.654;2022-08-01T09:59:53;5.00;;;1.85;;
26335;SDS011;14047;50.936;4.654;2022-08-01T10:04:59;3.10;;;1.40;;
26335;SDS011;14047;50.936;4.654;2022-08-01T10:07:25;1.55;;;1.20;;
26335;SDS011;14047;50.936;4.654;2022-08-01T10:09:51;3.17;;;1.58;;
26335;SDS011;14047;50.936;4.654;2022-08-01T10:12:18;2.10;;;1.20;;
26335;SDS011;14047;50.936;4.654;2022-08-01T10:14:46;3.45;;;1.20;;
26335;SDS011;14047;50.936;4.654;2022-08-01T10:17:15;1.73;;;1.27;;
26335;SDS011;14047;50.936;4.654;2022-08-01T10:19:42;3.13;;;1.55;;
26335;SDS011;14047;50.936;4.654;2022-08-01T10:22:10;2.55;;;1.40;;
26335;SDS011;14047;50.936;4.654;2022-08-01T10:24:43;7.57;;;1.98;;
26335;SDS011;14047;50.936;4.654;2022-08-01T10:27:11;2.33;;;1.52;;
26335;SDS011;14047;50.936;4.654;2022-08-01T10:29:46;2.10;;;1.90;;
26335;SDS011;14047;50.936;4.654;2022-08-01T10:32:22;3.58;;;1.75;;
26335;SDS011;14047;50.936;4.654;2022-08-01T10:34:51;2.38;;;1.73;;
26335;SDS011;14047;50.936;4.654;2022-08-01T10:37:18;3.13;;;1.70;;
26335;SDS011;14047;50.936;4.654;2022-08-01T10:39:44;6.03;;;1.70;;
26335;SDS011;14047;50.936;4.654;2022-08-01T10:42:10;4.57;;;1.60;;
26335;SDS011;14047;50.936;4.654;2022-08-01T10:44:37;3.85;;;1.70;;
26335;SDS011;14047;50.936;4.654;2022-08-01T10:47:04;2.45;;;1.60;;
26335;SDS011;14047;50.936;4.654;2022-08-01T10:49:34;1.38;;;1.27;;
26335;SDS011;14047;50.936;4.654;2022-08-01T10:52:04;3.47;;;1.85;;
26335;SDS011;14047;50.936;4.654;2022-08-01T10:54:30;2.47;;;1.40;;
26335;SDS011;14047;50.936;4.654;2022-08-01T10:57:03;2.33;;;1.60;;
26335;SDS011;14047;50.936;4.654;2022-08-01T10:59:31;3.00;;;1.50;;
26335;SDS011;14047;50.936;4.654;2022-08-01T11:01:59;1.83;;;1.65;;
26335;SDS011;14047;50.936;4.654;2022-08-01T11:04:44;2.53;;;1.30;;
26335;SDS011;14047;50.936;4.654;2022-08-01T11:07:38;3.10;;;1.67;;
26335;SDS011;14047;50.936;4.654;2022-08-01T11:13:00;2.55;;;1.67;;
26335;SDS011;14047;50.936;4.654;2022-08-01T11:15:28;8.27;;;1.80;;
26335;SDS011;14047;50.936;4.654;2022-08-01T11:17:54;3.10;;;1.65;;
26335;SDS011;14047;50.936;4.654;2022-08-01T11:20:24;1.40;;;1.30;;
26335;SDS011;14047;50.936;4.654;2022-08-01T11:38:43;4.82;;;1.35;;
26335;SDS011;14047;50.936;4.654;2022-08-01T11:41:11;1.95;;;1.08;;
26335;SDS011;14047;50.936;4.654;2022-08-01T11:44:00;1.95;;;1.30;;
26335;SDS011;14047;50.936;4.654;2022-08-01T11:54:29;4.90;;;1.00;;
26335;SDS011;14047;50.936;4.654;2022-08-01T11:56:58;2.25;;;0.70;;
26335;SDS011;14047;50.936;4.654;2022-08-01T11:59:25;2.95;;;0.80;;
26335;SDS011;14047;50.936;4.654;2022-08-01T12:01:51;2.08;;;0.70;;
26335;SDS011;14047;50.936;4.654;2022-08-01T12:04:17;5.95;;;0.90;;
26335;SDS011;14047;50.936;4.654;2022-08-01T12:06:42;2.65;;;0.82;;
26335;SDS011;14047;50.936;4.654;2022-08-01T12:09:16;1.95;;;0.63;;
26335;SDS011;14047;50.936;4.654;2022-08-01T12:11:43;2.35;;;0.95;;
26335;SDS011;14047;50.936;4.654;2022-08-01T12:14:09;3.60;;;0.88;;
26335;SDS011;14047;50.936;4.654;2022-08-01T12:16:40;3.17;;;0.77;;
26335;SDS011;14047;50.936;4.654;2022-08-01T12:19:17;2.60;;;0.70;;
26335;SDS011;14047;50.936;4.654;2022-08-01T12:22:04;2.45;;;0.70;;
26335;SDS011;14047;50.936;4.654;2022-08-01T12:24:34;3.35;;;0.88;;
26335;SDS011;14047;50.936;4.654;2022-08-01T12:27:01;3.42;;;0.63;;
26335;SDS011;14047;50.936;4.654;2022-08-01T12:29:34;4.47;;;0.80;;
26335;SDS011;14047;50.936;4.654;2022-08-01T12:32:04;2.00;;;0.65;;
26335;SDS011;14047;50.936;4.654;2022-08-01T12:34:45;1.33;;;0.50;;
26335;SDS011;14047;50.936;4.654;2022-08-01T12:37:11;2.17;;;0.70;;
26335;SDS011;14047;50.936;4.654;2022-08-01T12:39:37;1.20;;;0.68;;
26335;SDS011;14047;50.936;4.654;2022-08-01T12:42:07;1.35;;;0.60;;
26335;SDS011;14047;50.936;4.654;2022-08-01T12:44:35;2.10;;;1.02;;
26335;SDS011;14047;50.936;4.654;2022-08-01T12:47:02;2.67;;;0.80;;
26335;SDS011;14047;50.936;4.654;2022-08-01T12:49:31;1.05;;;0.63;;
26335;SDS011;14047;50.936;4.654;2022-08-01T12:52:01;2.97;;;0.70;;
26335;SDS011;14047;50.936;4.654;2022-08-01T12:54:28;1.88;;;0.70;;
26335;SDS011;14047;50.936;4.654;2022-08-01T12:56:53;1.70;;;0.70;;
26335;SDS011;14047;50.936;4.654;2022-08-01T12:59:23;1.80;;;0.50;;
26335;SDS011;14047;50.936;4.654;2022-08-01T13:01:53;0.90;;;0.55;;
26335;SDS011;14047;50.936;4.654;2022-08-01T13:04:33;1.27;;;0.80;;
26335;SDS011;14047;50.936;4.654;2022-08-01T13:07:16;1.77;;;0.50;;
26335;SDS011;14047;50.936;4.654;2022-08-01T13:09:51;1.60;;;0.90;;
26335;SDS011;14047;50.936;4.654;2022-08-01T13:12:17;1.65;;;0.77;;
26335;SDS011;14047;50.936;4.654;2022-08-01T13:14:42;1.10;;;0.60;;
26335;SDS011;14047;50.936;4.654;2022-08-01T13:17:08;1.20;;;0.52;;
26335;SDS011;14047;50.936;4.654;2022-08-01T13:19:43;2.58;;;0.70;;
26335;SDS011;14047;50.936;4.654;2022-08-01T13:22:10;2.42;;;0.50;;
26335;SDS011;14047;50.936;4.654;2022-08-01T13:24:35;3.10;;;0.60;;
26335;SDS011;14047;50.936;4.654;2022-08-01T13:27:02;4.95;;;0.75;;
26335;SDS011;14047;50.936;4.654;2022-08-01T13:29:32;3.55;;;0.75;;
26335;SDS011;14047;50.936;4.654;2022-08-01T13:31:59;2.63;;;0.80;;
26335;SDS011;14047;50.936;4.654;2022-08-01T13:34:38;3.92;;;0.70;;
26335;SDS011;14047;50.936;4.654;2022-08-01T13:37:04;2.03;;;0.70;;
26335;SDS011;14047;50.936;4.654;2022-08-01T13:39:30;3.70;;;1.00;;
26335;SDS011;14047;50.936;4.654;2022-08-01T13:42:10;1.17;;;0.57;;
26335;SDS011;14047;50.936;4.654;2022-08-01T13:44:36;2.15;;;0.70;;
26335;SDS011;14047;50.936;4.654;2022-08-01T13:47:04;1.50;;;0.80;;
26335;SDS011;14047;50.936;4.654;2022-08-01T13:49:30;2.83;;;0.93;;
26335;SDS011;14047;50.936;4.654;2022-08-01T13:51:56;4.97;;;0.77;;
26335;SDS011;14047;50.936;4.654;2022-08-01T13:54:23;2.22;;;0.70;;
26335;SDS011;14047;50.936;4.654;2022-08-01T13:56:49;1.88;;;0.80;;
26335;SDS011;14047;50.936;4.654;2022-08-01T13:59:16;1.42;;;0.68;;
26335;SDS011;14047;50.936;4.654;2022-08-01T14:01:41;1.00;;;0.52;;
26335;SDS011;14047;50.936;4.654;2022-08-01T14:04:07;2.42;;;0.80;;
26335;SDS011;14047;50.936;4.654;2022-08-01T14:06:33;2.60;;;0.75;;
26335;SDS011;14047;50.936;4.654;2022-08-01T14:08:59;1.65;;;0.60;;
26335;SDS011;14047;50.936;4.654;2022-08-01T14:11:26;3.17;;;0.60;;
26335;SDS011;14047;50.936;4.654;2022-08-01T14:13:52;1.95;;;0.65;;
26335;SDS011;14047;50.936;4.654;2022-08-01T14:16:17;2.10;;;0.70;;
26335;SDS011;14047;50.936;4.654;2022-08-01T14:18:43;2.30;;;0.60;;
26335;SDS011;14047;50.936;4.654;2022-08-01T14:21:09;2.35;;;0.77;;
26335;SDS011;14047;50.936;4.654;2022-08-01T14:23:35;1.85;;;0.88;;
26335;SDS011;14047;50.936;4.654;2022-08-01T14:26:00;2.28;;;0.80;;
26335;SDS011;14047;50.936;4.654;2022-08-01T14:28:26;1.60;;;0.65;;
26335;SDS011;14047;50.936;4.654;2022-08-01T14:30:53;2.97;;;1.02;;
26335;SDS011;14047;50.936;4.654;2022-08-01T14:33:20;1.75;;;0.60;;
26335;SDS011;14047;50.936;4.654;2022-08-01T14:35:46;2.20;;;0.70;;
26335;SDS011;14047;50.936;4.654;2022-08-01T14:38:12;2.45;;;0.90;;
26335;SDS011;14047;50.936;4.654;2022-08-01T14:40:38;1.83;;;0.65;;
26335;SDS011;14047;50.936;4.654;2022-08-01T14:43:05;3.58;;;0.80;;
26335;SDS011;14047;50.936;4.654;2022-08-01T14:45:31;2.17;;;0.80;;
26335;SDS011;14047;50.936;4.654;2022-08-01T14:47:57;1.17;;;0.55;;
26335;SDS011;14047;50.936;4.654;2022-08-01T14:50:23;1.25;;;0.50;;
26335;SDS011;14047;50.936;4.654;2022-08-01T14:52:51;1.05;;;0.50;;
26335;SDS011;14047;50.936;4.654;2022-08-01T14:55:17;4.57;;;0.60;;
26335;SDS011;14047;50.936;4.654;2022-08-01T14:57:46;2.88;;;0.70;;
26335;SDS011;14047;50.936;4.654;2022-08-01T15:00:12;6.50;;;0.57;;
26335;SDS011;14047;50.936;4.654;2022-08-01T15:02:38;2.25;;;0.50;;
26335;SDS011;14047;50.936;4.654;2022-08-01T15:05:04;1.48;;;0.50;;
26335;SDS011;14047;50.936;4.654;2022-08-01T15:07:31;4.05;;;0.95;;
26335;SDS011;14047;50.936;4.654;2022-08-01T15:09:57;2.88;;;0.60;;
26335;SDS011;14047;50.936;4.654;2022-08-01T15:12:23;1.42;;;0.70;;
26335;SDS011;14047;50.936;4.654;2022-08-01T15:14:48;2.17;;;0.60;;
26335;SDS011;14047;50.936;4.654;2022-08-01T15:17:15;1.48;;;0.38;;
26335;SDS011;14047;50.936;4.654;2022-08-01T15:20:03;0.98;;;0.50;;
26335;SDS011;14047;50.936;4.654;2022-08-01T15:22:30;2.97;;;0.80;;
26335;SDS011;14047;50.936;4.654;2022-08-01T15:24:57;2.45;;;0.70;;
26335;SDS011;14047;50.936;4.654;2022-08-01T15:27:24;1.95;;;0.65;;